sensor_id;sensor_type;location;lat;lon;timestamp;P1;durP1;ratioP1;P2;durP2;ratioP2
44822;SDS011;51097;51.984;5.650;2023-08-06T00:02:19;5.28;;;4.40;;
44822;SDS011;51097;51.984;5.650;2023-08-06T00:04:44;6.32;;;5.10;;
44822;SDS011;51097;51.984;5.650;2023-08-06T00:07:10;5.03;;;4.47;;
44822;SDS011;51097;51.984;5.650;2023-08-06T00:09:36;10.60;;;5.15;;
44822;SDS011;51097;51.984;5.650;2023-08-06T00:12:01;5.57;;;5.07;;
44822;SDS011;51097;51.984;5.650;2023-08-06T00:14:27;5.68;;;4.93;;
44822;SDS011;51097;51.984;5.650;2023-08-06T00:16:52;6.78;;;4.55;;
44822;SDS011;51097;51.984;5.650;2023-08-06T00:19:21;9.55;;;5.40;;
44822;SDS011;51097;51.984;5.650;2023-08-06T00:21:47;4.93;;;4.45;;
44822;SDS011;51097;51.984;5.650;2023-08-06T00:24:12;8.35;;;5.10;;
44822;SDS011;51097;51.984;5.650;2023-08-06T00:26:39;11.13;;;5.28;;
44822;SDS011;51097;51.984;5.650;2023-08-06T00:29:04;6.53;;;4.65;;
44822;SDS011;51097;51.984;5.650;2023-08-06T00:31:30;6.18;;;5.60;;
44822;SDS011;51097;51.984;5.650;2023-08-06T00:33:55;6.55;;;5.60;;
44822;SDS011;51097;51.984;5.650;2023-08-06T00:36:21;5.82;;;5.18;;
44822;SDS011;51097;51.984;5.650;2023-08-06T00:38:47;5.82;;;5.07;;
44822;SDS011;51097;51.984;5.650;2023-08-06T00:41:12;6.40;;;5.70;;
44822;SDS011;51097;51.984;5.650;2023-08-06T00:43:38;7.75;;;6.00;;
44822;SDS011;51097;51.984;5.650;2023-08-06T00:46:04;7.95;;;6.07;;
44822;SDS011;51097;51.984;5.650;2023-08-06T00:48:30;7.70;;;5.25;;
44822;SDS011;51097;51.984;5.650;2023-08-06T00:50:56;6.07;;;5.47;;
44822;SDS011;51097;51.984;5.650;2023-08-06T00:53:22;6.65;;;6.03;;
44822;SDS011;51097;51.984;5.650;2023-08-06T00:55:47;7.53;;;5.80;;
44822;SDS011;51097;51.984;5.650;2023-08-06T00:58:13;7.97;;;5.72;;
44822;SDS011;51097;51.984;5.650;2023-08-06T01:00:41;8.30;;;5.85;;
44822;SDS011;51097;51.984;5.650;2023-08-06T01:03:07;6.30;;;5.45;;
44822;SDS011;51097;51.984;5.650;2023-08-06T01:05:32;7.20;;;6.50;;
44822;SDS011;51097;51.984;5.650;2023-08-06T01:13:36;5.63;;;5.07;;
44822;SDS011;51097;51.984;5.650;2023-08-06T01:16:09;8.23;;;6.20;;
44822;SDS011;51097;51.984;5.650;2023-08-06T01:18:36;7.88;;;6.05;;
44822;SDS011;51097;51.984;5.650;2023-08-06T01:21:04;9.20;;;5.70;;
44822;SDS011;51097;51.984;5.650;2023-08-06T01:23:29;7.07;;;6.38;;
44822;SDS011;51097;51.984;5.650;2023-08-06T01:26:57;7.35;;;6.53;;
44822;SDS011;51097;51.984;5.650;2023-08-06T01:31:43;9.45;;;6.68;;
44822;SDS011;51097;51.984;5.650;2023-08-06T01:34:16;11.18;;;7.93;;
44822;SDS011;51097;51.984;5.650;2023-08-06T01:36:44;9.60;;;7.75;;
44822;SDS011;51097;51.984;5.650;2023-08-06T01:39:10;9.43;;;7.68;;
44822;SDS011;51097;51.984;5.650;2023-08-06T01:41:36;12.75;;;8.95;;
44822;SDS011;51097;51.984;5.650;2023-08-06T01:44:01;12.23;;;9.30;;
44822;SDS011;51097;51.984;5.650;2023-08-06T01:46:27;14.13;;;9.95;;
44822;SDS011;51097;51.984;5.650;2023-08-06T01:48:52;11.70;;;9.05;;
44822;SDS011;51097;51.984;5.650;2023-08-06T01:51:18;11.98;;;9.20;;
44822;SDS011;51097;51.984;5.650;2023-08-06T01:53:44;13.82;;;10.25;;
44822;SDS011;51097;51.984;5.650;2023-08-06T01:56:09;19.05;;;10.65;;
44822;SDS011;51097;51.984;5.650;2023-08-06T01:58:35;12.18;;;10.38;;
44822;SDS011;51097;51.984;5.650;2023-08-06T02:01:01;11.25;;;9.57;;
44822;SDS011;51097;51.984;5.650;2023-08-06T02:03:27;10.38;;;9.35;;
44822;SDS011;51097;51.984;5.650;2023-08-06T02:05:53;11.73;;;9.25;;
44822;SDS011;51097;51.984;5.650;2023-08-06T02:08:18;13.88;;;10.52;;
44822;SDS011;51097;51.984;5.650;2023-08-06T02:10:44;13.20;;;11.05;;
44822;SDS011;51097;51.984;5.650;2023-08-06T02:13:10;13.00;;;9.88;;
44822;SDS011;51097;51.984;5.650;2023-08-06T02:15:36;10.13;;;9.10;;
44822;SDS011;51097;51.984;5.650;2023-08-06T02:18:08;13.02;;;10.35;;
44822;SDS011;51097;51.984;5.650;2023-08-06T02:20:34;11.23;;;10.00;;
44822;SDS011;51097;51.984;5.650;2023-08-06T02:22:59;11.65;;;10.40;;
44822;SDS011;51097;51.984;5.650;2023-08-06T02:25:25;15.50;;;11.35;;
44822;SDS011;51097;51.984;5.650;2023-08-06T02:27:51;11.45;;;10.10;;
44822;SDS011;51097;51.984;5.650;2023-08-06T02:30:16;13.27;;;9.60;;
44822;SDS011;51097;51.984;5.650;2023-08-06T02:32:42;16.42;;;10.68;;
44822;SDS011;51097;51.984;5.650;2023-08-06T02:35:07;13.70;;;9.65;;
44822;SDS011;51097;51.984;5.650;2023-08-06T02:37:33;10.52;;;9.30;;
44822;SDS011;51097;51.984;5.650;2023-08-06T02:39:59;11.88;;;10.18;;
44822;SDS011;51097;51.984;5.650;2023-08-06T02:42:25;11.85;;;10.02;;
44822;SDS011;51097;51.984;5.650;2023-08-06T02:44:51;13.82;;;9.90;;
44822;SDS011;51097;51.984;5.650;2023-08-06T02:47:19;13.73;;;10.00;;
44822;SDS011;51097;51.984;5.650;2023-08-06T02:49:45;15.30;;;9.73;;
44822;SDS011;51097;51.984;5.650;2023-08-06T02:52:11;10.85;;;9.68;;
44822;SDS011;51097;51.984;5.650;2023-08-06T02:54:37;10.70;;;9.52;;
44822;SDS011;51097;51.984;5.650;2023-08-06T02:57:02;11.93;;;10.07;;
44822;SDS011;51097;51.984;5.650;2023-08-06T02:59:28;10.88;;;9.30;;
44822;SDS011;51097;51.984;5.650;2023-08-06T03:01:54;12.32;;;9.32;;
44822;SDS011;51097;51.984;5.650;2023-08-06T03:04:19;13.23;;;9.50;;
44822;SDS011;51097;51.984;5.650;2023-08-06T03:06:45;12.90;;;10.57;;
44822;SDS011;51097;51.984;5.650;2023-08-06T03:09:10;13.00;;;10.30;;
44822;SDS011;51097;51.984;5.650;2023-08-06T03:11:36;10.10;;;9.10;;
44822;SDS011;51097;51.984;5.650;2023-08-06T03:14:01;13.82;;;9.23;;
44822;SDS011;51097;51.984;5.650;2023-08-06T03:16:27;11.88;;;9.23;;
44822;SDS011;51097;51.984;5.650;2023-08-06T03:18:53;10.77;;;9.40;;
44822;SDS011;51097;51.984;5.650;2023-08-06T03:21:18;11.55;;;9.50;;
44822;SDS011;51097;51.984;5.650;2023-08-06T03:23:46;10.30;;;9.15;;
44822;SDS011;51097;51.984;5.650;2023-08-06T03:26:13;13.83;;;9.60;;
44822;SDS011;51097;51.984;5.650;2023-08-06T03:28:39;10.32;;;8.00;;
44822;SDS011;51097;51.984;5.650;2023-08-06T03:31:04;14.10;;;10.80;;
44822;SDS011;51097;51.984;5.650;2023-08-06T03:33:30;12.70;;;9.60;;
44822;SDS011;51097;51.984;5.650;2023-08-06T03:35:56;12.80;;;9.60;;
44822;SDS011;51097;51.984;5.650;2023-08-06T03:38:22;11.52;;;9.68;;
44822;SDS011;51097;51.984;5.650;2023-08-06T03:40:48;11.00;;;9.73;;
44822;SDS011;51097;51.984;5.650;2023-08-06T03:43:14;12.88;;;10.57;;
44822;SDS011;51097;51.984;5.650;2023-08-06T03:45:40;12.93;;;10.93;;
44822;SDS011;51097;51.984;5.650;2023-08-06T03:48:06;14.07;;;10.13;;
44822;SDS011;51097;51.984;5.650;2023-08-06T03:50:32;11.00;;;9.75;;
44822;SDS011;51097;51.984;5.650;2023-08-06T03:52:57;14.23;;;11.82;;
44822;SDS011;51097;51.984;5.650;2023-08-06T03:55:23;14.32;;;11.38;;
44822;SDS011;51097;51.984;5.650;2023-08-06T03:57:48;13.38;;;11.02;;
44822;SDS011;51097;51.984;5.650;2023-08-06T04:00:14;12.98;;;10.93;;
44822;SDS011;51097;51.984;5.650;2023-08-06T04:02:40;10.32;;;9.23;;
44822;SDS011;51097;51.984;5.650;2023-08-06T04:05:05;13.13;;;11.27;;
44822;SDS011;51097;51.984;5.650;2023-08-06T04:07:31;13.23;;;10.80;;
44822;SDS011;51097;51.984;5.650;2023-08-06T04:09:58;10.77;;;9.68;;
44822;SDS011;51097;51.984;5.650;2023-08-06T04:12:26;11.48;;;10.27;;
44822;SDS011;51097;51.984;5.650;2023-08-06T04:14:52;12.13;;;10.18;;
44822;SDS011;51097;51.984;5.650;2023-08-06T04:17:18;12.32;;;11.13;;
44822;SDS011;51097;51.984;5.650;2023-08-06T04:19:52;13.52;;;10.57;;
44822;SDS011;51097;51.984;5.650;2023-08-06T04:22:19;14.80;;;11.77;;
44822;SDS011;51097;51.984;5.650;2023-08-06T04:24:45;11.30;;;10.10;;
44822;SDS011;51097;51.984;5.650;2023-08-06T04:27:12;12.23;;;10.38;;
44822;SDS011;51097;51.984;5.650;2023-08-06T04:29:39;13.07;;;11.32;;
44822;SDS011;51097;51.984;5.650;2023-08-06T04:32:05;12.25;;;10.57;;
44822;SDS011;51097;51.984;5.650;2023-08-06T04:34:32;11.70;;;10.50;;
44822;SDS011;51097;51.984;5.650;2023-08-06T04:36:58;12.68;;;11.35;;
44822;SDS011;51097;51.984;5.650;2023-08-06T04:39:24;15.57;;;11.63;;
44822;SDS011;51097;51.984;5.650;2023-08-06T04:41:49;14.38;;;11.07;;
44822;SDS011;51097;51.984;5.650;2023-08-06T04:44:15;13.02;;;10.07;;
44822;SDS011;51097;51.984;5.650;2023-08-06T04:46:41;13.52;;;11.05;;
44822;SDS011;51097;51.984;5.650;2023-08-06T04:49:06;11.98;;;9.77;;
44822;SDS011;51097;51.984;5.650;2023-08-06T04:51:32;13.90;;;11.10;;
44822;SDS011;51097;51.984;5.650;2023-08-06T04:53:57;11.98;;;10.68;;
44822;SDS011;51097;51.984;5.650;2023-08-06T04:56:23;11.65;;;10.32;;
44822;SDS011;51097;51.984;5.650;2023-08-06T04:58:49;12.10;;;10.80;;
44822;SDS011;51097;51.984;5.650;2023-08-06T05:01:15;12.93;;;11.15;;
44822;SDS011;51097;51.984;5.650;2023-08-06T05:03:40;11.48;;;9.88;;
44822;SDS011;51097;51.984;5.650;2023-08-06T05:06:06;11.32;;;10.23;;
44822;SDS011;51097;51.984;5.650;2023-08-06T05:08:32;10.23;;;9.25;;
44822;SDS011;51097;51.984;5.650;2023-08-06T05:10:57;10.70;;;9.63;;
44822;SDS011;51097;51.984;5.650;2023-08-06T05:13:23;11.35;;;9.65;;
44822;SDS011;51097;51.984;5.650;2023-08-06T05:15:48;10.43;;;8.88;;
44822;SDS011;51097;51.984;5.650;2023-08-06T05:18:14;9.85;;;8.43;;
44822;SDS011;51097;51.984;5.650;2023-08-06T05:20:40;14.32;;;8.90;;
44822;SDS011;51097;51.984;5.650;2023-08-06T05:23:07;9.82;;;8.93;;
44822;SDS011;51097;51.984;5.650;2023-08-06T05:25:36;10.23;;;9.23;;
44822;SDS011;51097;51.984;5.650;2023-08-06T05:28:02;9.27;;;8.27;;
44822;SDS011;51097;51.984;5.650;2023-08-06T05:30:28;10.70;;;8.32;;
44822;SDS011;51097;51.984;5.650;2023-08-06T05:32:54;10.90;;;9.43;;
44822;SDS011;51097;51.984;5.650;2023-08-06T05:35:20;8.35;;;7.55;;
44822;SDS011;51097;51.984;5.650;2023-08-06T05:37:46;10.02;;;8.40;;
44822;SDS011;51097;51.984;5.650;2023-08-06T05:40:12;12.88;;;8.18;;
44822;SDS011;51097;51.984;5.650;2023-08-06T05:42:38;10.77;;;9.68;;
44822;SDS011;51097;51.984;5.650;2023-08-06T05:45:04;9.60;;;8.60;;
44822;SDS011;51097;51.984;5.650;2023-08-06T05:47:30;11.00;;;9.30;;
44822;SDS011;51097;51.984;5.650;2023-08-06T05:49:55;10.60;;;9.55;;
44822;SDS011;51097;51.984;5.650;2023-08-06T05:52:21;14.23;;;10.40;;
44822;SDS011;51097;51.984;5.650;2023-08-06T05:54:46;11.43;;;10.32;;
44822;SDS011;51097;51.984;5.650;2023-08-06T05:57:12;12.68;;;11.02;;
44822;SDS011;51097;51.984;5.650;2023-08-06T05:59:37;11.68;;;9.55;;
44822;SDS011;51097;51.984;5.650;2023-08-06T06:02:05;13.07;;;11.25;;
44822;SDS011;51097;51.984;5.650;2023-08-06T06:04:31;11.90;;;10.48;;
44822;SDS011;51097;51.984;5.650;2023-08-06T06:06:56;12.73;;;11.10;;
44822;SDS011;51097;51.984;5.650;2023-08-06T06:09:22;12.63;;;11.32;;
44822;SDS011;51097;51.984;5.650;2023-08-06T06:11:47;15.40;;;12.88;;
44822;SDS011;51097;51.984;5.650;2023-08-06T06:14:15;14.10;;;12.63;;
44822;SDS011;51097;51.984;5.650;2023-08-06T06:16:41;15.55;;;13.77;;
44822;SDS011;51097;51.984;5.650;2023-08-06T06:19:07;16.80;;;14.52;;
44822;SDS011;51097;51.984;5.650;2023-08-06T06:21:32;16.33;;;14.63;;
44822;SDS011;51097;51.984;5.650;2023-08-06T06:23:58;16.48;;;14.43;;
44822;SDS011;51097;51.984;5.650;2023-08-06T06:26:23;17.85;;;15.43;;
44822;SDS011;51097;51.984;5.650;2023-08-06T06:28:49;16.85;;;15.15;;
44822;SDS011;51097;51.984;5.650;2023-08-06T06:31:14;16.85;;;15.05;;
44822;SDS011;51097;51.984;5.650;2023-08-06T06:33:40;19.10;;;17.10;;
44822;SDS011;51097;51.984;5.650;2023-08-06T06:36:06;19.08;;;17.08;;
44822;SDS011;51097;51.984;5.650;2023-08-06T06:38:32;18.48;;;15.13;;
44822;SDS011;51097;51.984;5.650;2023-08-06T06:40:58;21.15;;;17.88;;
44822;SDS011;51097;51.984;5.650;2023-08-06T06:43:25;21.67;;;17.48;;
44822;SDS011;51097;51.984;5.650;2023-08-06T06:45:57;19.30;;;17.23;;
44822;SDS011;51097;51.984;5.650;2023-08-06T06:48:27;18.13;;;15.25;;
44822;SDS011;51097;51.984;5.650;2023-08-06T06:50:54;18.58;;;16.52;;
44822;SDS011;51097;51.984;5.650;2023-08-06T06:53:20;20.13;;;17.80;;
44822;SDS011;51097;51.984;5.650;2023-08-06T06:55:52;18.90;;;16.23;;
44822;SDS011;51097;51.984;5.650;2023-08-06T06:58:20;17.27;;;15.43;;
44822;SDS011;51097;51.984;5.650;2023-08-06T07:00:49;18.50;;;16.50;;
44822;SDS011;51097;51.984;5.650;2023-08-06T07:03:15;20.40;;;16.63;;
44822;SDS011;51097;51.984;5.650;2023-08-06T07:05:41;20.23;;;16.85;;
44822;SDS011;51097;51.984;5.650;2023-08-06T07:08:08;21.92;;;17.40;;
44822;SDS011;51097;51.984;5.650;2023-08-06T07:10:34;19.75;;;17.58;;
44822;SDS011;51097;51.984;5.650;2023-08-06T07:12:59;22.98;;;18.85;;
44822;SDS011;51097;51.984;5.650;2023-08-06T07:15:25;20.75;;;17.05;;
44822;SDS011;51097;51.984;5.650;2023-08-06T07:17:51;23.50;;;19.02;;
44822;SDS011;51097;51.984;5.650;2023-08-06T07:20:16;22.02;;;18.52;;
44822;SDS011;51097;51.984;5.650;2023-08-06T07:22:43;22.33;;;18.58;;
44822;SDS011;51097;51.984;5.650;2023-08-06T07:25:09;26.13;;;20.65;;
44822;SDS011;51097;51.984;5.650;2023-08-06T07:27:35;25.02;;;19.92;;
44822;SDS011;51097;51.984;5.650;2023-08-06T07:30:01;25.83;;;19.92;;
44822;SDS011;51097;51.984;5.650;2023-08-06T07:32:27;22.92;;;18.67;;
44822;SDS011;51097;51.984;5.650;2023-08-06T07:34:55;18.08;;;16.00;;
44822;SDS011;51097;51.984;5.650;2023-08-06T07:37:24;24.48;;;19.10;;
44822;SDS011;51097;51.984;5.650;2023-08-06T07:39:50;21.73;;;17.52;;
44822;SDS011;51097;51.984;5.650;2023-08-06T07:42:15;21.95;;;18.02;;
44822;SDS011;51097;51.984;5.650;2023-08-06T07:44:41;20.05;;;16.42;;
44822;SDS011;51097;51.984;5.650;2023-08-06T07:47:07;19.30;;;17.30;;
44822;SDS011;51097;51.984;5.650;2023-08-06T07:49:32;17.83;;;15.90;;
44822;SDS011;51097;51.984;5.650;2023-08-06T07:51:58;21.92;;;16.17;;
44822;SDS011;51097;51.984;5.650;2023-08-06T07:54:24;25.02;;;14.95;;
44822;SDS011;51097;51.984;5.650;2023-08-06T07:56:49;14.93;;;13.15;;
44822;SDS011;51097;51.984;5.650;2023-08-06T07:59:15;16.30;;;14.52;;
44822;SDS011;51097;51.984;5.650;2023-08-06T08:01:41;17.67;;;15.00;;
44822;SDS011;51097;51.984;5.650;2023-08-06T08:04:07;17.80;;;13.38;;
44822;SDS011;51097;51.984;5.650;2023-08-06T08:06:33;16.50;;;14.15;;
44822;SDS011;51097;51.984;5.650;2023-08-06T08:08:58;14.82;;;13.32;;
44822;SDS011;51097;51.984;5.650;2023-08-06T08:11:25;16.33;;;14.63;;
44822;SDS011;51097;51.984;5.650;2023-08-06T08:13:51;15.05;;;13.52;;
44822;SDS011;51097;51.984;5.650;2023-08-06T08:16:16;14.52;;;12.93;;
44822;SDS011;51097;51.984;5.650;2023-08-06T08:18:42;14.57;;;11.82;;
44822;SDS011;51097;51.984;5.650;2023-08-06T08:21:07;13.48;;;12.13;;
44822;SDS011;51097;51.984;5.650;2023-08-06T08:23:33;14.05;;;11.88;;
44822;SDS011;51097;51.984;5.650;2023-08-06T08:25:59;11.20;;;10.10;;
44822;SDS011;51097;51.984;5.650;2023-08-06T08:28:27;10.70;;;8.82;;
44822;SDS011;51097;51.984;5.650;2023-08-06T08:30:52;10.45;;;9.45;;
44822;SDS011;51097;51.984;5.650;2023-08-06T08:33:21;10.50;;;8.45;;
44822;SDS011;51097;51.984;5.650;2023-08-06T08:35:47;9.43;;;8.35;;
44822;SDS011;51097;51.984;5.650;2023-08-06T08:38:12;8.63;;;7.72;;
44822;SDS011;51097;51.984;5.650;2023-08-06T08:40:40;7.53;;;6.70;;
44822;SDS011;51097;51.984;5.650;2023-08-06T08:43:12;7.50;;;6.80;;
44822;SDS011;51097;51.984;5.650;2023-08-06T08:45:39;7.50;;;6.80;;
44822;SDS011;51097;51.984;5.650;2023-08-06T08:48:07;6.90;;;6.18;;
44822;SDS011;51097;51.984;5.650;2023-08-06T08:50:36;6.22;;;5.63;;
44822;SDS011;51097;51.984;5.650;2023-08-06T08:53:01;3.92;;;3.55;;
44822;SDS011;51097;51.984;5.650;2023-08-06T08:55:27;2.35;;;2.10;;
44822;SDS011;51097;51.984;5.650;2023-08-06T08:57:53;2.25;;;0.80;;
44822;SDS011;51097;51.984;5.650;2023-08-06T09:00:19;1.20;;;0.70;;
44822;SDS011;51097;51.984;5.650;2023-08-06T09:02:44;0.40;;;0.40;;
44822;SDS011;51097;51.984;5.650;2023-08-06T09:05:10;1.00;;;0.90;;
44822;SDS011;51097;51.984;5.650;2023-08-06T09:07:41;1.05;;;1.00;;
44822;SDS011;51097;51.984;5.650;2023-08-06T09:10:11;1.45;;;1.10;;
44822;SDS011;51097;51.984;5.650;2023-08-06T09:12:38;1.40;;;1.30;;
44822;SDS011;51097;51.984;5.650;2023-08-06T09:15:04;2.80;;;1.30;;
44822;SDS011;51097;51.984;5.650;2023-08-06T09:17:30;1.40;;;1.30;;
44822;SDS011;51097;51.984;5.650;2023-08-06T09:19:56;1.92;;;1.30;;
44822;SDS011;51097;51.984;5.650;2023-08-06T09:22:22;1.35;;;1.25;;
44822;SDS011;51097;51.984;5.650;2023-08-06T09:24:48;1.73;;;1.48;;
44822;SDS011;51097;51.984;5.650;2023-08-06T09:27:14;1.30;;;1.20;;
44822;SDS011;51097;51.984;5.650;2023-08-06T09:29:43;2.63;;;1.17;;
44822;SDS011;51097;51.984;5.650;2023-08-06T09:32:10;2.33;;;1.27;;
44822;SDS011;51097;51.984;5.650;2023-08-06T09:34:38;1.20;;;1.10;;
44822;SDS011;51097;51.984;5.650;2023-08-06T09:37:05;0.98;;;0.98;;
44822;SDS011;51097;51.984;5.650;2023-08-06T09:39:31;2.83;;;1.30;;
44822;SDS011;51097;51.984;5.650;2023-08-06T09:42:00;1.65;;;1.20;;
44822;SDS011;51097;51.984;5.650;2023-08-06T09:44:27;2.50;;;1.75;;
44822;SDS011;51097;51.984;5.650;2023-08-06T09:46:57;5.25;;;2.80;;
44822;SDS011;51097;51.984;5.650;2023-08-06T09:51:58;4.22;;;2.55;;
44822;SDS011;51097;51.984;5.650;2023-08-06T09:54:25;5.90;;;2.88;;
44822;SDS011;51097;51.984;5.650;2023-08-06T09:56:55;3.97;;;3.55;;
44822;SDS011;51097;51.984;5.650;2023-08-06T09:59:25;4.40;;;3.30;;
44822;SDS011;51097;51.984;5.650;2023-08-06T10:01:51;3.47;;;3.15;;
44822;SDS011;51097;51.984;5.650;2023-08-06T10:04:19;5.35;;;3.03;;
44822;SDS011;51097;51.984;5.650;2023-08-06T10:06:46;5.63;;;3.50;;
44822;SDS011;51097;51.984;5.650;2023-08-06T10:09:15;5.75;;;3.55;;
44822;SDS011;51097;51.984;5.650;2023-08-06T10:11:41;5.18;;;3.25;;
44822;SDS011;51097;51.984;5.650;2023-08-06T10:14:14;6.00;;;3.22;;
44822;SDS011;51097;51.984;5.650;2023-08-06T10:16:46;3.58;;;3.22;;
44822;SDS011;51097;51.984;5.650;2023-08-06T10:19:12;5.40;;;3.72;;
44822;SDS011;51097;51.984;5.650;2023-08-06T10:21:40;5.38;;;3.78;;
44822;SDS011;51097;51.984;5.650;2023-08-06T10:24:24;5.63;;;3.47;;
44822;SDS011;51097;51.984;5.650;2023-08-06T10:26:50;4.47;;;4.00;;
44822;SDS011;51097;51.984;5.650;2023-08-06T10:32:04;6.50;;;4.07;;
44822;SDS011;51097;51.984;5.650;2023-08-06T10:37:34;4.93;;;4.50;;
44822;SDS011;51097;51.984;5.650;2023-08-06T10:40:01;5.47;;;4.63;;
44822;SDS011;51097;51.984;5.650;2023-08-06T10:42:28;5.50;;;4.80;;
44822;SDS011;51097;51.984;5.650;2023-08-06T10:47:40;6.25;;;4.88;;
44822;SDS011;51097;51.984;5.650;2023-08-06T10:50:07;7.32;;;5.72;;
44822;SDS011;51097;51.984;5.650;2023-08-06T10:52:35;6.38;;;5.25;;
44822;SDS011;51097;51.984;5.650;2023-08-06T10:55:01;7.82;;;6.00;;
44822;SDS011;51097;51.984;5.650;2023-08-06T10:57:26;7.32;;;5.65;;
44822;SDS011;51097;51.984;5.650;2023-08-06T10:59:52;8.10;;;6.13;;
44822;SDS011;51097;51.984;5.650;2023-08-06T11:02:17;6.47;;;5.85;;
44822;SDS011;51097;51.984;5.650;2023-08-06T11:04:43;7.15;;;6.18;;
44822;SDS011;51097;51.984;5.650;2023-08-06T11:07:09;7.40;;;6.18;;
44822;SDS011;51097;51.984;5.650;2023-08-06T11:09:35;7.85;;;6.30;;
44822;SDS011;51097;51.984;5.650;2023-08-06T11:12:00;10.73;;;6.78;;
44822;SDS011;51097;51.984;5.650;2023-08-06T11:14:26;8.90;;;7.25;;
44822;SDS011;51097;51.984;5.650;2023-08-06T11:16:51;7.60;;;6.65;;
44822;SDS011;51097;51.984;5.650;2023-08-06T11:19:17;7.95;;;5.90;;
44822;SDS011;51097;51.984;5.650;2023-08-06T11:21:43;7.70;;;5.80;;
44822;SDS011;51097;51.984;5.650;2023-08-06T11:24:12;6.65;;;5.45;;
44822;SDS011;51097;51.984;5.650;2023-08-06T11:26:37;7.53;;;6.32;;
44822;SDS011;51097;51.984;5.650;2023-08-06T11:29:05;8.60;;;6.40;;
44822;SDS011;51097;51.984;5.650;2023-08-06T11:31:31;10.18;;;5.10;;
44822;SDS011;51097;51.984;5.650;2023-08-06T11:33:56;5.35;;;4.85;;
44822;SDS011;51097;51.984;5.650;2023-08-06T11:36:32;6.63;;;4.40;;
44822;SDS011;51097;51.984;5.650;2023-08-06T11:39:05;7.15;;;5.05;;
44822;SDS011;51097;51.984;5.650;2023-08-06T11:41:31;7.93;;;4.40;;
44822;SDS011;51097;51.984;5.650;2023-08-06T11:44:00;5.40;;;4.22;;
44822;SDS011;51097;51.984;5.650;2023-08-06T11:46:26;5.22;;;4.47;;
44822;SDS011;51097;51.984;5.650;2023-08-06T11:48:52;6.32;;;3.75;;
44822;SDS011;51097;51.984;5.650;2023-08-06T11:51:23;7.53;;;4.15;;
44822;SDS011;51097;51.984;5.650;2023-08-06T11:53:58;5.93;;;4.13;;
44822;SDS011;51097;51.984;5.650;2023-08-06T11:56:24;8.38;;;4.35;;
44822;SDS011;51097;51.984;5.650;2023-08-06T11:58:54;6.75;;;4.22;;
44822;SDS011;51097;51.984;5.650;2023-08-06T12:01:20;7.05;;;4.28;;
44822;SDS011;51097;51.984;5.650;2023-08-06T12:03:45;6.35;;;4.20;;
44822;SDS011;51097;51.984;5.650;2023-08-06T12:06:11;6.10;;;4.53;;
44822;SDS011;51097;51.984;5.650;2023-08-06T12:08:36;5.97;;;4.93;;
44822;SDS011;51097;51.984;5.650;2023-08-06T12:11:03;5.78;;;4.13;;
44822;SDS011;51097;51.984;5.650;2023-08-06T12:13:29;5.13;;;4.40;;
44822;SDS011;51097;51.984;5.650;2023-08-06T12:15:57;5.32;;;4.07;;
44822;SDS011;51097;51.984;5.650;2023-08-06T12:18:32;6.88;;;5.10;;
44822;SDS011;51097;51.984;5.650;2023-08-06T12:20:57;5.88;;;4.43;;
44822;SDS011;51097;51.984;5.650;2023-08-06T12:23:23;6.43;;;4.20;;
44822;SDS011;51097;51.984;5.650;2023-08-06T12:25:48;7.50;;;4.18;;
44822;SDS011;51097;51.984;5.650;2023-08-06T12:28:14;4.25;;;3.70;;
44822;SDS011;51097;51.984;5.650;2023-08-06T12:30:40;6.10;;;3.53;;
44822;SDS011;51097;51.984;5.650;2023-08-06T12:33:08;4.10;;;3.00;;
44822;SDS011;51097;51.984;5.650;2023-08-06T12:35:37;6.25;;;3.67;;
44822;SDS011;51097;51.984;5.650;2023-08-06T12:38:03;3.30;;;3.00;;
44822;SDS011;51097;51.984;5.650;2023-08-06T12:40:29;3.42;;;2.70;;
44822;SDS011;51097;51.984;5.650;2023-08-06T12:42:54;3.13;;;2.80;;
44822;SDS011;51097;51.984;5.650;2023-08-06T12:45:20;4.40;;;3.05;;
44822;SDS011;51097;51.984;5.650;2023-08-06T12:47:46;4.07;;;3.17;;
44822;SDS011;51097;51.984;5.650;2023-08-06T12:50:12;6.25;;;3.22;;
44822;SDS011;51097;51.984;5.650;2023-08-06T12:52:37;4.20;;;2.78;;
44822;SDS011;51097;51.984;5.650;2023-08-06T12:55:03;3.10;;;2.60;;
44822;SDS011;51097;51.984;5.650;2023-08-06T12:57:29;4.55;;;2.55;;
44822;SDS011;51097;51.984;5.650;2023-08-06T12:59:54;3.15;;;2.25;;
44822;SDS011;51097;51.984;5.650;2023-08-06T13:02:20;3.65;;;2.10;;
44822;SDS011;51097;51.984;5.650;2023-08-06T13:04:46;2.63;;;2.42;;
44822;SDS011;51097;51.984;5.650;2023-08-06T13:07:11;4.07;;;2.72;;
44822;SDS011;51097;51.984;5.650;2023-08-06T13:09:37;3.78;;;2.67;;
44822;SDS011;51097;51.984;5.650;2023-08-06T13:12:03;3.50;;;1.90;;
44822;SDS011;51097;51.984;5.650;2023-08-06T13:14:30;3.30;;;2.03;;
44822;SDS011;51097;51.984;5.650;2023-08-06T13:16:56;3.83;;;2.20;;
44822;SDS011;51097;51.984;5.650;2023-08-06T13:19:22;5.35;;;2.38;;
44822;SDS011;51097;51.984;5.650;2023-08-06T13:24:14;2.20;;;1.60;;
44822;SDS011;51097;51.984;5.650;2023-08-06T13:26:40;2.45;;;1.90;;
44822;SDS011;51097;51.984;5.650;2023-08-06T13:29:06;3.53;;;1.95;;
44822;SDS011;51097;51.984;5.650;2023-08-06T13:31:32;4.22;;;2.05;;
44822;SDS011;51097;51.984;5.650;2023-08-06T13:33:58;3.55;;;2.08;;
44822;SDS011;51097;51.984;5.650;2023-08-06T13:36:24;2.50;;;2.25;;
44822;SDS011;51097;51.984;5.650;2023-08-06T13:38:51;3.35;;;2.35;;
44822;SDS011;51097;51.984;5.650;2023-08-06T13:41:16;3.67;;;2.10;;
44822;SDS011;51097;51.984;5.650;2023-08-06T13:43:42;3.72;;;1.90;;
44822;SDS011;51097;51.984;5.650;2023-08-06T13:46:09;4.72;;;2.15;;
44822;SDS011;51097;51.984;5.650;2023-08-06T13:48:41;3.55;;;1.83;;
44822;SDS011;51097;51.984;5.650;2023-08-06T13:51:07;3.05;;;1.70;;
44822;SDS011;51097;51.984;5.650;2023-08-06T13:53:33;1.98;;;1.75;;
44822;SDS011;51097;51.984;5.650;2023-08-06T13:55:58;4.82;;;2.05;;
44822;SDS011;51097;51.984;5.650;2023-08-06T13:58:24;2.28;;;1.80;;
44822;SDS011;51097;51.984;5.650;2023-08-06T14:00:50;4.32;;;2.17;;
44822;SDS011;51097;51.984;5.650;2023-08-06T14:03:18;2.97;;;2.13;;
44822;SDS011;51097;51.984;5.650;2023-08-06T14:05:44;2.70;;;1.58;;
44822;SDS011;51097;51.984;5.650;2023-08-06T14:08:09;3.13;;;1.98;;
44822;SDS011;51097;51.984;5.650;2023-08-06T14:10:35;3.38;;;2.03;;
44822;SDS011;51097;51.984;5.650;2023-08-06T14:13:01;2.88;;;1.67;;
44822;SDS011;51097;51.984;5.650;2023-08-06T14:15:26;2.38;;;1.60;;
44822;SDS011;51097;51.984;5.650;2023-08-06T14:17:52;3.33;;;2.00;;
44822;SDS011;51097;51.984;5.650;2023-08-06T14:20:17;3.65;;;1.70;;
44822;SDS011;51097;51.984;5.650;2023-08-06T14:22:43;6.03;;;2.55;;
44822;SDS011;51097;51.984;5.650;2023-08-06T14:25:09;4.13;;;2.50;;
44822;SDS011;51097;51.984;5.650;2023-08-06T14:27:34;3.45;;;2.03;;
44822;SDS011;51097;51.984;5.650;2023-08-06T14:30:03;2.90;;;2.30;;
44822;SDS011;51097;51.984;5.650;2023-08-06T14:32:30;4.07;;;3.55;;
44822;SDS011;51097;51.984;5.650;2023-08-06T14:34:56;3.03;;;2.13;;
44822;SDS011;51097;51.984;5.650;2023-08-06T14:37:23;5.00;;;2.15;;
44822;SDS011;51097;51.984;5.650;2023-08-06T14:39:49;4.00;;;2.58;;
44822;SDS011;51097;51.984;5.650;2023-08-06T14:42:15;7.13;;;2.90;;
44822;SDS011;51097;51.984;5.650;2023-08-06T14:44:41;4.40;;;2.50;;
44822;SDS011;51097;51.984;5.650;2023-08-06T14:47:06;5.25;;;2.60;;
44822;SDS011;51097;51.984;5.650;2023-08-06T14:49:32;6.78;;;4.80;;
44822;SDS011;51097;51.984;5.650;2023-08-06T14:51:57;3.80;;;2.75;;
44822;SDS011;51097;51.984;5.650;2023-08-06T14:54:25;4.72;;;2.13;;
44822;SDS011;51097;51.984;5.650;2023-08-06T14:56:51;4.82;;;2.40;;